createdAt,value
2022-09-13T00:02:18.061Z,12.10
2022-09-13T00:04:47.239Z,12.00
2022-09-13T00:07:15.044Z,12.00
2022-09-13T00:09:42.794Z,12.10
2022-09-13T00:12:10.521Z,12.00
2022-09-13T00:14:38.542Z,11.90
2022-09-13T00:17:06.270Z,11.90
2022-09-13T00:19:34.167Z,12.00
2022-09-13T00:22:03.313Z,12.00
2022-09-13T00:24:31.052Z,11.90
2022-09-13T00:26:58.766Z,11.90
2022-09-13T00:29:26.625Z,11.90
2022-09-13T00:31:54.500Z,11.90
2022-09-13T00:34:22.446Z,11.90
2022-09-13T00:36:50.198Z,11.80
2022-09-13T00:39:19.453Z,11.80
2022-09-13T00:41:47.189Z,11.80
2022-09-13T00:44:48.629Z,11.80
2022-09-13T00:47:20.564Z,11.80
2022-09-13T00:49:52.301Z,11.80
2022-09-13T00:52:23.990Z,11.70
2022-09-13T00:55:01.135Z,11.70
2022-09-13T00:57:32.994Z,11.70
2022-09-13T01:00:08.956Z,11.80
2022-09-13T01:02:36.868Z,11.70
2022-09-13T01:05:05.105Z,11.70
2022-09-13T01:07:33.378Z,11.70
2022-09-13T01:10:07.557Z,11.70
2022-09-13T01:12:44.027Z,11.60
2022-09-13T01:15:12.213Z,11.60
2022-09-13T01:17:40.805Z,11.60
2022-09-13T01:20:11.758Z,11.60
2022-09-13T01:22:57.264Z,11.60
2022-09-13T01:26:05.802Z,11.60
2022-09-13T01:28:50.010Z,11.60
2022-09-13T01:31:26.785Z,11.60
2022-09-13T01:34:04.270Z,11.50
2022-09-13T01:36:56.763Z,11.50
2022-09-13T01:39:44.116Z,11.40
2022-09-13T01:42:22.829Z,11.50
2022-09-13T01:45:06.594Z,11.40
2022-09-13T01:47:45.865Z,11.30
2022-09-13T01:50:20.438Z,11.30
2022-09-13T01:52:55.065Z,11.30
2022-09-13T01:55:30.271Z,11.30
2022-09-13T01:58:06.648Z,11.40
2022-09-13T02:00:42.218Z,11.30
2022-09-13T02:03:18.370Z,11.30
2022-09-13T02:05:52.728Z,11.30
2022-09-13T02:08:26.568Z,11.30
2022-09-13T02:10:59.992Z,11.30
2022-09-13T02:13:31.022Z,11.20
2022-09-13T02:16:05.759Z,11.30
2022-09-13T02:18:39.411Z,11.30
2022-09-13T02:21:11.902Z,11.20
2022-09-13T02:23:44.885Z,11.10
2022-09-13T02:26:15.288Z,11.20
2022-09-13T02:28:46.560Z,11.20
2022-09-13T02:31:18.214Z,11.20
2022-09-13T02:33:54.762Z,11.10
2022-09-13T02:36:25.625Z,11.20
2022-09-13T02:38:57.222Z,11.20
2022-09-13T02:41:31.336Z,11.20
2022-09-13T02:44:05.825Z,11.20
2022-09-13T02:46:48.214Z,11.00
2022-09-13T02:49:26.370Z,11.10
2022-09-13T02:52:01.710Z,11.20
2022-09-13T02:54:36.855Z,11.10
2022-09-13T02:57:10.463Z,11.10
2022-09-13T02:59:38.515Z,11.10
2022-09-13T03:02:10.302Z,11.10
2022-09-13T03:04:39.602Z,11.10
2022-09-13T03:07:11.216Z,11.10
2022-09-13T03:09:43.523Z,11.10
2022-09-13T03:12:43.151Z,11.10
2022-09-13T03:15:20.964Z,11.00
2022-09-13T03:17:58.169Z,11.00
2022-09-13T03:20:37.048Z,11.00
2022-09-13T03:23:28.075Z,10.90
2022-09-13T03:26:20.040Z,10.90
2022-09-13T03:28:56.370Z,10.90
2022-09-13T03:31:30.993Z,10.90
2022-09-13T03:34:04.526Z,10.90
2022-09-13T03:36:38.637Z,10.80
2022-09-13T03:39:15.438Z,10.80
2022-09-13T03:41:48.213Z,10.70
2022-09-13T03:44:20.417Z,10.70
2022-09-13T03:46:49.889Z,10.70
2022-09-13T03:49:19.581Z,10.70
2022-09-13T03:51:50.797Z,10.70
2022-09-13T03:54:22.269Z,10.70
2022-09-13T03:57:08.633Z,10.60
2022-09-13T03:59:38.583Z,10.60
2022-09-13T04:02:07.483Z,10.70
2022-09-13T04:04:35.331Z,10.60
2022-09-13T04:07:04.454Z,10.70
2022-09-13T04:09:32.457Z,10.70
2022-09-13T04:12:00.466Z,10.60
2022-09-13T04:14:28.435Z,10.60
2022-09-13T04:16:57.247Z,10.60
2022-09-13T04:19:26.976Z,10.60
2022-09-13T04:21:56.310Z,10.70
2022-09-13T04:24:27.911Z,10.60
2022-09-13T04:26:56.261Z,10.60
2022-09-13T04:29:26.390Z,10.60
2022-09-13T04:31:55.456Z,10.60
2022-09-13T04:34:23.942Z,10.70
2022-09-13T04:36:52.804Z,10.70
2022-09-13T04:39:20.971Z,10.80
2022-09-13T04:41:51.851Z,10.70
2022-09-13T04:44:20.565Z,10.80
2022-09-13T04:46:49.552Z,10.70
2022-09-13T04:49:18.311Z,10.70
2022-09-13T04:51:46.044Z,10.80
2022-09-13T04:54:16.089Z,10.80
2022-09-13T04:56:44.310Z,10.80
2022-09-13T04:59:13.686Z,10.80
2022-09-13T05:01:42.250Z,10.80
2022-09-13T05:04:11.118Z,10.80
2022-09-13T05:06:39.350Z,10.80
2022-09-13T05:09:07.596Z,10.80
2022-09-13T05:11:35.451Z,10.90
2022-09-13T05:14:03.878Z,11.00
2022-09-13T05:16:34.235Z,11.00
2022-09-13T05:19:02.038Z,11.00
2022-09-13T05:21:30.852Z,11.00
2022-09-13T05:23:59.442Z,11.00
2022-09-13T05:26:31.216Z,11.10
2022-09-13T05:28:59.042Z,11.10
2022-09-13T05:31:30.424Z,11.10
2022-09-13T05:34:02.150Z,11.20
2022-09-13T05:36:30.512Z,11.30
2022-09-13T05:39:26.082Z,11.30
2022-09-13T05:41:46.916Z,11.40
2022-09-13T05:44:14.789Z,11.50
2022-09-13T05:46:43.271Z,11.50
2022-09-13T05:49:13.707Z,11.50
2022-09-13T05:51:41.693Z,11.50
2022-09-13T05:54:12.157Z,11.60
2022-09-13T05:56:39.907Z,11.60
2022-09-13T05:59:08.825Z,11.60
2022-09-13T06:01:36.686Z,11.70
2022-09-13T06:04:04.656Z,11.70
2022-09-13T06:06:33.757Z,11.80
2022-09-13T06:09:01.555Z,12.00
2022-09-13T06:11:29.371Z,12.10
2022-09-13T06:13:57.106Z,12.10
2022-09-13T06:16:24.910Z,12.20
2022-09-13T06:18:53.523Z,12.30
2022-09-13T06:21:28.269Z,12.50
2022-09-13T06:23:58.526Z,12.60
2022-09-13T06:26:28.194Z,12.80
2022-09-13T06:28:57.533Z,12.90
2022-09-13T06:31:27.262Z,13.00
2022-09-13T06:34:00.111Z,13.10
2022-09-13T06:36:27.979Z,13.20
2022-09-13T06:38:56.873Z,13.30
2022-09-13T06:41:27.093Z,13.30
2022-09-13T06:43:57.362Z,13.40
2022-09-13T06:46:25.671Z,13.50
2022-09-13T06:48:54.132Z,13.60
2022-09-13T06:51:23.995Z,13.80
2022-09-13T06:53:53.400Z,13.90
2022-09-13T06:56:22.595Z,14.00
2022-09-13T06:58:55.622Z,14.20
2022-09-13T07:01:24.986Z,14.30
2022-09-13T07:03:54.873Z,14.30
2022-09-13T07:06:24.577Z,14.50
2022-09-13T07:08:53.905Z,14.60
2022-09-13T07:11:23.641Z,14.70
2022-09-13T07:13:54.578Z,14.80
2022-09-13T07:16:24.953Z,15.00
2022-09-13T07:18:53.917Z,15.10
2022-09-13T07:21:22.410Z,15.30
2022-09-13T07:23:50.610Z,15.50
2022-09-13T07:26:18.339Z,15.70
2022-09-13T07:28:48.991Z,15.90
2022-09-13T07:31:20.496Z,16.10
2022-09-13T07:33:49.790Z,16.30
2022-09-13T07:36:17.506Z,16.40
2022-09-13T07:38:45.878Z,16.70
2022-09-13T07:41:15.337Z,16.80
2022-09-13T07:43:43.770Z,16.90
2022-09-13T07:46:13.088Z,17.00
2022-09-13T07:48:43.459Z,17.10
2022-09-13T07:51:13.041Z,17.30
2022-09-13T07:53:42.418Z,17.40
2022-09-13T07:56:13.343Z,17.60
2022-09-13T07:58:42.362Z,17.70
2022-09-13T08:01:13.284Z,17.80
2022-09-13T08:03:42.742Z,18.10
2022-09-13T08:06:11.003Z,18.20
2022-09-13T08:08:39.126Z,18.50
2022-09-13T08:11:08.130Z,18.70
2022-09-13T08:13:35.904Z,18.90
2022-09-13T08:16:05.618Z,19.00
2022-09-13T08:18:34.079Z,19.10
2022-09-13T08:21:03.373Z,19.20
2022-09-13T08:23:31.758Z,19.20
2022-09-13T08:26:02.913Z,19.20
2022-09-13T08:28:32.186Z,19.10
2022-09-13T08:31:05.078Z,19.00
2022-09-13T08:33:33.496Z,19.00
2022-09-13T08:36:02.973Z,19.00
2022-09-13T08:38:31.485Z,19.10
2022-09-13T08:41:02.523Z,19.20
2022-09-13T08:43:44.166Z,19.30
2022-09-13T08:46:22.398Z,19.30
2022-09-13T08:48:53.418Z,19.40
2022-09-13T08:51:32.463Z,19.70
2022-09-13T08:54:02.938Z,19.70
2022-09-13T08:56:39.356Z,19.70
2022-09-13T08:59:30.381Z,20.00
2022-09-13T09:02:11.732Z,20.10
2022-09-13T09:04:45.228Z,20.30
2022-09-13T09:07:18.447Z,20.40
2022-09-13T09:09:52.468Z,20.30
2022-09-13T09:12:28.656Z,20.40
2022-09-13T09:15:05.018Z,20.30
2022-09-13T09:17:41.777Z,20.30
2022-09-13T09:20:22.818Z,20.30
2022-09-13T09:22:54.886Z,20.60
2022-09-13T09:25:26.618Z,20.70
2022-09-13T09:27:55.536Z,20.90
2022-09-13T09:30:23.309Z,21.00
2022-09-13T09:33:09.171Z,21.20
2022-09-13T09:35:52.891Z,21.20
2022-09-13T09:38:43.786Z,21.40
2022-09-13T09:41:17.954Z,21.50
2022-09-13T09:43:52.540Z,21.70
2022-09-13T09:46:28.186Z,21.80
2022-09-13T09:48:58.591Z,22.00
2022-09-13T09:51:30.586Z,21.90
2022-09-13T09:54:05.136Z,21.90
2022-09-13T09:56:34.770Z,22.10
2022-09-13T09:59:03.374Z,22.30
2022-09-13T10:01:33.193Z,22.30
2022-09-13T10:04:08.528Z,22.40
2022-09-13T10:06:38.019Z,22.50
2022-09-13T10:09:15.182Z,22.40
2022-09-13T10:11:46.514Z,22.40
2022-09-13T10:14:37.321Z,22.60
2022-09-13T10:17:15.286Z,22.50
2022-09-13T10:19:52.701Z,22.60
2022-09-13T10:22:21.085Z,22.50
2022-09-13T10:24:51.164Z,22.50
2022-09-13T10:27:27.142Z,22.40
2022-09-13T10:29:59.612Z,22.40
2022-09-13T10:32:28.598Z,22.60
2022-09-13T10:34:58.799Z,22.70
2022-09-13T10:37:31.366Z,22.70
2022-09-13T10:40:07.325Z,22.50
2022-09-13T10:42:35.553Z,22.60
2022-09-13T10:45:04.961Z,22.80
2022-09-13T10:47:35.671Z,22.90
2022-09-13T10:50:20.161Z,23.00
2022-09-13T10:52:49.261Z,23.30
2022-09-13T10:55:37.503Z,23.50
2022-09-13T10:58:18.281Z,23.20
2022-09-13T11:01:07.390Z,23.50
2022-09-13T11:03:59.921Z,23.70
2022-09-13T11:06:37.186Z,23.70
2022-09-13T11:09:11.925Z,23.90
2022-09-13T11:11:49.382Z,24.20
2022-09-13T11:14:43.123Z,24.20
2022-09-13T11:17:20.378Z,24.30
2022-09-13T11:20:05.352Z,24.20
2022-09-13T11:22:44.684Z,24.10
2022-09-13T11:25:27.127Z,24.00
2022-09-13T11:28:04.848Z,23.90
2022-09-13T11:30:39.563Z,24.00
2022-09-13T11:33:27.106Z,23.90
2022-09-13T11:36:19.637Z,23.70
2022-09-13T11:38:56.933Z,23.60
2022-09-13T11:41:35.391Z,23.70
2022-09-13T11:44:36.762Z,23.80
2022-09-13T11:47:12.519Z,23.70
2022-09-13T11:50:13.289Z,23.80
2022-09-13T11:52:53.870Z,23.90
2022-09-13T11:55:27.043Z,23.90
2022-09-13T11:57:57.806Z,23.80
2022-09-13T12:00:31.443Z,23.90
2022-09-13T12:03:04.277Z,23.80
2022-09-13T12:05:39.418Z,23.70
2022-09-13T12:08:14.907Z,23.80
2022-09-13T12:10:48.581Z,24.00
2022-09-13T12:13:21.185Z,24.10
2022-09-13T12:15:54.662Z,24.20
2022-09-13T12:18:26.191Z,24.10
2022-09-13T12:20:56.558Z,24.10
2022-09-13T12:23:29.362Z,24.10
2022-09-13T12:26:01.217Z,24.20
2022-09-13T12:28:35.906Z,24.20
2022-09-13T12:31:11.062Z,24.20
2022-09-13T12:33:41.383Z,24.20
2022-09-13T12:36:39.223Z,24.20
2022-09-13T12:39:24.748Z,24.30
2022-09-13T12:42:16.831Z,24.40
2022-09-13T12:44:59.767Z,24.20
2022-09-13T12:48:03.911Z,24.20
2022-09-13T12:51:07.496Z,24.20
2022-09-13T12:54:03.635Z,24.00
2022-09-13T12:56:56.895Z,24.00
2022-09-13T12:59:57.922Z,24.00
2022-09-13T13:02:30.832Z,24.00
2022-09-13T13:05:03.671Z,23.90
2022-09-13T13:07:34.762Z,24.20
2022-09-13T13:10:03.325Z,24.30
2022-09-13T13:12:33.559Z,24.30
2022-09-13T13:15:02.694Z,24.20
2022-09-13T13:17:45.756Z,24.30
2022-09-13T13:21:04.794Z,24.40
2022-09-13T13:23:35.041Z,24.40
2022-09-13T13:26:07.717Z,24.60
2022-09-13T13:29:20.815Z,24.80
2022-09-13T13:32:10.969Z,24.80
2022-09-13T13:34:45.413Z,24.50
2022-09-13T13:37:37.981Z,24.30
2022-09-13T13:40:21.582Z,24.30
2022-09-13T13:42:49.510Z,24.30
2022-09-13T13:45:25.715Z,24.20
2022-09-13T13:48:13.051Z,24.10
2022-09-13T13:51:15.326Z,24.00
2022-09-13T13:53:46.957Z,24.40
2022-09-13T13:56:30.673Z,24.40
2022-09-13T13:59:04.718Z,24.20
2022-09-13T14:01:35.453Z,24.10
2022-09-13T14:04:37.277Z,23.90
2022-09-13T14:07:34.918Z,24.10
2022-09-13T14:10:13.070Z,24.30
2022-09-13T14:12:57.513Z,24.30
2022-09-13T14:15:47.368Z,24.20
2022-09-13T14:18:45.954Z,24.10
2022-09-13T14:21:26.649Z,24.00
2022-09-13T14:24:10.499Z,24.00
2022-09-13T14:26:40.358Z,24.00
2022-09-13T14:29:09.230Z,24.10
2022-09-13T14:31:38.234Z,24.10
2022-09-13T14:34:06.106Z,24.30
2022-09-13T14:36:33.862Z,24.20
2022-09-13T14:39:02.063Z,24.30
2022-09-13T14:41:34.439Z,24.30
2022-09-13T14:44:27.756Z,24.40
2022-09-13T14:47:06.126Z,24.40
2022-09-13T14:49:36.999Z,24.30
2022-09-13T14:52:07.839Z,24.40
2022-09-13T14:54:39.997Z,24.50
2022-09-13T14:57:11.491Z,24.60
2022-09-13T14:59:45.526Z,24.40
2022-09-13T15:02:20.772Z,24.50
2022-09-13T15:04:52.869Z,24.40
2022-09-13T15:07:24.678Z,24.50
2022-09-13T15:09:58.515Z,24.40
2022-09-13T15:12:28.830Z,24.20
2022-09-13T15:15:39.217Z,24.00
2022-09-13T15:18:25.214Z,24.00
2022-09-13T15:20:55.310Z,23.80
2022-09-13T15:23:26.979Z,23.70
2022-09-13T15:25:56.915Z,23.70
2022-09-13T15:28:28.490Z,23.60
2022-09-13T15:30:58.104Z,23.60
2022-09-13T15:33:30.007Z,23.60
2022-09-13T15:36:29.710Z,23.50
2022-09-13T15:39:00.904Z,23.50
2022-09-13T15:41:33.712Z,23.40
2022-09-13T15:44:03.131Z,23.30
2022-09-13T15:46:31.751Z,23.20
2022-09-13T15:49:05.029Z,23.00
2022-09-13T15:51:38.225Z,23.00
2022-09-13T15:54:11.862Z,22.90
2022-09-13T15:56:42.319Z,22.70
2022-09-13T15:59:13.677Z,22.50
2022-09-13T16:01:41.580Z,22.30
2022-09-13T16:04:11.058Z,22.20
2022-09-13T16:06:39.030Z,22.10
2022-09-13T16:09:16.434Z,21.90
2022-09-13T16:11:44.196Z,21.80
2022-09-13T16:14:11.984Z,21.80
2022-09-13T16:16:40.259Z,21.70
2022-09-13T16:19:14.320Z,21.60
2022-09-13T16:21:42.246Z,21.50
2022-09-13T16:24:10.036Z,21.50
2022-09-13T16:26:38.142Z,21.60
2022-09-13T16:29:06.209Z,21.50
2022-09-13T16:31:34.267Z,21.50
2022-09-13T16:34:02.078Z,21.50
2022-09-13T16:36:31.176Z,21.40
2022-09-13T16:38:58.971Z,21.30
2022-09-13T16:41:27.479Z,21.20
2022-09-13T16:43:56.155Z,21.10
2022-09-13T16:46:24.011Z,21.10
2022-09-13T16:48:55.066Z,21.10
2022-09-13T16:51:24.027Z,21.10
2022-09-13T16:53:54.389Z,21.10
2022-09-13T16:56:24.338Z,21.10
2022-09-13T16:58:53.382Z,21.10
2022-09-13T17:01:22.910Z,21.00
2022-09-13T17:03:54.603Z,20.80
2022-09-13T17:06:23.978Z,20.70
2022-09-13T17:08:55.523Z,20.70
2022-09-13T17:11:26.239Z,20.60
2022-09-13T17:13:54.818Z,20.50
2022-09-13T17:16:26.918Z,20.50
2022-09-13T17:18:57.220Z,20.50
2022-09-13T17:21:25.701Z,20.40
2022-09-13T17:23:55.665Z,20.30
2022-09-13T17:26:23.989Z,20.30
2022-09-13T17:28:52.497Z,20.20
2022-09-13T17:31:20.519Z,20.10
2022-09-13T17:33:49.823Z,20.00
2022-09-13T17:36:17.843Z,19.90
2022-09-13T17:38:46.030Z,19.90
2022-09-13T17:41:17.184Z,19.80
2022-09-13T17:43:46.617Z,19.70
2022-09-13T17:46:16.211Z,19.60
2022-09-13T17:48:44.678Z,19.60
2022-09-13T17:51:14.626Z,19.50
2022-09-13T17:53:44.185Z,19.40
2022-09-13T17:56:12.039Z,19.40
2022-09-13T17:58:41.415Z,19.40
2022-09-13T18:01:10.803Z,19.30
2022-09-13T18:03:39.191Z,19.30
2022-09-13T18:06:10.206Z,19.20
2022-09-13T18:08:40.218Z,19.10
2022-09-13T18:11:13.728Z,19.10
2022-09-13T18:13:44.364Z,19.10
2022-09-13T18:16:18.593Z,19.10
2022-09-13T18:18:49.422Z,19.00
2022-09-13T18:21:18.984Z,19.00
2022-09-13T18:23:47.524Z,18.90
2022-09-13T18:26:18.514Z,18.90
2022-09-13T18:28:48.428Z,18.80
2022-09-13T18:31:18.090Z,18.80
2022-09-13T18:33:47.840Z,18.70
2022-09-13T18:36:17.878Z,18.70
2022-09-13T18:38:47.381Z,18.60
2022-09-13T18:41:17.094Z,18.70
2022-09-13T18:43:52.977Z,18.60
2022-09-13T18:46:24.611Z,18.60
2022-09-13T18:48:54.183Z,18.60
2022-09-13T18:51:23.855Z,18.60
2022-09-13T18:53:51.864Z,18.60
2022-09-13T18:56:21.086Z,18.60
2022-09-13T18:58:50.946Z,18.50
2022-09-13T19:01:21.080Z,18.50
2022-09-13T19:03:50.554Z,18.40
2022-09-13T19:06:20.043Z,18.40
2022-09-13T19:08:48.709Z,18.40
2022-09-13T19:11:42.081Z,18.40
2022-09-13T19:14:07.086Z,18.40
2022-09-13T19:16:35.751Z,18.40
2022-09-13T19:19:03.677Z,18.30
2022-09-13T19:21:33.058Z,18.30
2022-09-13T19:24:06.496Z,18.20
2022-09-13T19:26:39.332Z,18.20
2022-09-13T19:29:11.254Z,18.10
2022-09-13T19:31:41.260Z,18.10
2022-09-13T19:34:09.662Z,18.10
2022-09-13T19:36:39.998Z,18.00
2022-09-13T19:39:08.483Z,18.00
2022-09-13T19:41:37.846Z,18.00
2022-09-13T19:44:05.798Z,18.00
2022-09-13T19:46:38.125Z,18.00
2022-09-13T19:49:08.075Z,17.80
2022-09-13T19:51:37.599Z,17.80
2022-09-13T19:54:07.426Z,17.80
2022-09-13T19:56:37.819Z,17.70
2022-09-13T19:59:06.867Z,17.70
2022-09-13T20:01:39.016Z,17.60
2022-09-13T20:04:08.912Z,17.60
2022-09-13T20:06:39.593Z,17.60
2022-09-13T20:09:08.797Z,17.50
2022-09-13T20:11:42.139Z,17.50
2022-09-13T20:14:10.638Z,17.50
2022-09-13T20:16:40.937Z,17.50
2022-09-13T20:19:29.498Z,17.40
2022-09-13T20:21:57.111Z,17.40
2022-09-13T20:24:25.359Z,17.40
2022-09-13T20:26:53.245Z,17.30
2022-09-13T20:29:21.010Z,17.20
2022-09-13T20:31:50.049Z,17.20
2022-09-13T20:34:17.771Z,17.20
2022-09-13T20:36:47.057Z,17.20
2022-09-13T20:39:16.185Z,17.20
2022-09-13T20:41:44.229Z,17.20
2022-09-13T20:44:12.145Z,17.20
2022-09-13T20:46:41.047Z,17.20
2022-09-13T20:49:10.208Z,17.20
2022-09-13T20:51:38.502Z,17.20
2022-09-13T20:54:06.739Z,17.10
2022-09-13T20:56:35.356Z,17.10
2022-09-13T20:59:04.009Z,17.10
2022-09-13T21:01:32.465Z,17.10
2022-09-13T21:04:00.842Z,17.00
2022-09-13T21:06:32.072Z,17.00
2022-09-13T21:08:59.667Z,17.00
2022-09-13T21:11:30.253Z,17.10
2022-09-13T21:14:00.164Z,17.10
2022-09-13T21:16:29.781Z,17.10
2022-09-13T21:18:58.157Z,17.10
2022-09-13T21:21:29.431Z,17.20
2022-09-13T21:24:00.313Z,17.20
2022-09-13T21:26:29.891Z,17.20
2022-09-13T21:28:58.675Z,17.20
2022-09-13T21:31:28.813Z,17.20
2022-09-13T21:33:58.637Z,17.20
2022-09-13T21:36:27.213Z,17.20
2022-09-13T21:38:56.402Z,17.20
2022-09-13T21:41:27.619Z,17.20
2022-09-13T21:43:55.966Z,17.20
2022-09-13T21:46:25.781Z,17.20
2022-09-13T21:48:55.913Z,17.20
2022-09-13T21:51:24.856Z,17.20
2022-09-13T21:53:58.674Z,17.10
2022-09-13T21:56:30.740Z,17.10
2022-09-13T21:59:00.067Z,17.10
2022-09-13T22:01:29.963Z,17.10
2022-09-13T22:03:58.232Z,17.10
2022-09-13T22:06:30.288Z,17.20
2022-09-13T22:09:02.374Z,17.20
2022-09-13T22:11:33.998Z,17.20
2022-09-13T22:14:02.387Z,17.20
2022-09-13T22:16:31.787Z,17.20
2022-09-13T22:19:08.089Z,17.20
2022-09-13T22:21:38.423Z,17.20
2022-09-13T22:24:07.772Z,17.20
2022-09-13T22:26:39.365Z,17.30
2022-09-13T22:29:07.592Z,17.30
2022-09-13T22:31:38.938Z,17.20
2022-09-13T22:34:07.826Z,17.20
2022-09-13T22:36:35.863Z,17.30
2022-09-13T22:39:03.695Z,17.30
2022-09-13T22:41:33.185Z,17.30
2022-09-13T22:44:03.789Z,17.30
2022-09-13T22:46:33.606Z,17.30
2022-09-13T22:49:02.286Z,17.30
2022-09-13T22:51:30.895Z,17.30
2022-09-13T22:54:01.385Z,17.30
2022-09-13T22:56:34.433Z,17.30
2022-09-13T22:59:05.722Z,17.30
2022-09-13T23:01:33.526Z,17.30
2022-09-13T23:04:02.235Z,17.30
2022-09-13T23:06:31.078Z,17.30
2022-09-13T23:09:00.454Z,17.30
2022-09-13T23:11:30.602Z,17.30
2022-09-13T23:14:01.289Z,17.30
2022-09-13T23:16:33.929Z,17.30
2022-09-13T23:19:01.829Z,17.30
2022-09-13T23:21:31.305Z,17.30
2022-09-13T23:23:59.679Z,17.20
2022-09-13T23:26:27.974Z,17.10
2022-09-13T23:28:57.274Z,17.10
2022-09-13T23:31:26.238Z,17.10
2022-09-13T23:33:56.827Z,17.10
2022-09-13T23:36:26.729Z,17.10
2022-09-13T23:38:57.109Z,17.10
2022-09-13T23:41:26.278Z,17.00
2022-09-13T23:43:54.706Z,17.10
2022-09-13T23:46:22.990Z,17.10
2022-09-13T23:48:51.346Z,17.10
2022-09-13T23:51:22.977Z,17.10
2022-09-13T23:53:51.883Z,17.20
2022-09-13T23:56:20.290Z,17.20
2022-09-13T23:58:48.024Z,17.20
